createdAt,value
2017-08-22T00:01:29.339Z,99.70
2017-08-22T00:03:55.491Z,99.70
2017-08-22T00:06:21.631Z,99.70
2017-08-22T00:08:47.751Z,99.60
2017-08-22T00:11:13.907Z,99.40
2017-08-22T00:13:40.031Z,99.30
2017-08-22T00:16:06.148Z,99.40
2017-08-22T00:18:32.299Z,99.30
2017-08-22T00:20:58.500Z,98.90
2017-08-22T00:23:24.631Z,98.90
2017-08-22T00:25:50.947Z,98.40
2017-08-22T00:28:17.055Z,98.60
2017-08-22T00:30:43.205Z,98.90
2017-08-22T00:33:09.355Z,99.20
2017-08-22T00:35:35.495Z,99.40
2017-08-22T00:38:01.671Z,99.30
2017-08-22T00:40:27.823Z,99.40
2017-08-22T00:42:53.963Z,99.30
2017-08-22T00:45:20.119Z,99.30
2017-08-22T00:47:46.256Z,99.30
2017-08-22T00:50:12.400Z,99.30
2017-08-22T00:52:38.566Z,99.40
2017-08-22T00:55:04.706Z,99.00
2017-08-22T00:57:30.839Z,98.80
2017-08-22T00:59:57.016Z,98.70
2017-08-22T01:02:23.134Z,97.70
2017-08-22T01:04:49.272Z,98.00
2017-08-22T01:07:15.440Z,98.40
2017-08-22T01:09:41.544Z,98.50
2017-08-22T01:12:07.707Z,98.30
2017-08-22T01:14:33.838Z,98.20
2017-08-22T01:16:59.956Z,98.30
2017-08-22T01:19:26.106Z,98.50
2017-08-22T01:21:52.244Z,98.40
2017-08-22T01:24:18.376Z,98.70
2017-08-22T01:26:44.545Z,98.70
2017-08-22T01:29:10.700Z,98.60
2017-08-22T01:31:36.856Z,98.50
2017-08-22T01:34:03.015Z,98.70
2017-08-22T01:36:29.143Z,98.90
2017-08-22T01:38:55.285Z,99.00
2017-08-22T01:41:21.454Z,99.20
2017-08-22T01:43:47.600Z,99.30
2017-08-22T01:46:13.741Z,99.20
2017-08-22T01:48:39.896Z,99.40
2017-08-22T01:51:06.028Z,99.40
2017-08-22T01:53:32.139Z,99.40
2017-08-22T01:55:58.304Z,99.30
2017-08-22T01:58:24.433Z,99.30
2017-08-22T02:00:50.553Z,99.30
2017-08-22T02:03:17.028Z,99.30
2017-08-22T02:05:43.145Z,99.30
2017-08-22T02:08:09.260Z,99.30
2017-08-22T02:10:35.418Z,99.30
2017-08-22T02:13:01.540Z,99.00
2017-08-22T02:15:27.683Z,98.90
2017-08-22T02:17:53.840Z,98.20
2017-08-22T02:20:19.972Z,98.30
2017-08-22T02:22:46.105Z,98.50
2017-08-22T02:25:12.266Z,97.90
2017-08-22T02:27:38.389Z,98.10
2017-08-22T02:30:04.532Z,98.80
2017-08-22T02:32:30.673Z,99.10
2017-08-22T02:34:56.789Z,99.40
2017-08-22T02:37:22.932Z,99.60
2017-08-22T02:39:49.121Z,99.60
2017-08-22T02:42:15.251Z,99.70
2017-08-22T02:44:41.380Z,99.70
2017-08-22T02:47:07.612Z,99.60
2017-08-22T02:49:33.757Z,99.80
2017-08-22T02:51:59.889Z,99.80
2017-08-22T02:54:26.036Z,99.80
2017-08-22T02:56:52.156Z,99.80
2017-08-22T02:59:18.284Z,99.90
2017-08-22T03:01:44.435Z,99.90
2017-08-22T03:04:10.558Z,99.90
2017-08-22T03:06:36.677Z,99.90
2017-08-22T03:09:02.859Z,99.90
2017-08-22T03:11:28.988Z,99.90
2017-08-22T03:13:55.169Z,99.90
2017-08-22T03:16:21.405Z,99.90
2017-08-22T03:18:47.520Z,99.90
2017-08-22T03:21:13.643Z,99.90
2017-08-22T03:23:39.772Z,99.90
2017-08-22T03:26:05.896Z,99.90
2017-08-22T03:28:32.045Z,99.90
2017-08-22T03:30:58.382Z,99.90
2017-08-22T03:33:24.521Z,99.90
2017-08-22T03:35:50.828Z,99.90
2017-08-22T03:38:16.984Z,99.90
2017-08-22T03:40:43.104Z,99.90
2017-08-22T03:43:09.328Z,99.90
2017-08-22T03:45:35.448Z,99.90
2017-08-22T03:48:01.565Z,99.90
2017-08-22T03:50:27.747Z,99.90
2017-08-22T03:52:53.873Z,99.90
2017-08-22T03:55:19.995Z,99.90
2017-08-22T03:57:46.169Z,99.90
2017-08-22T04:00:12.299Z,99.90
2017-08-22T04:02:38.450Z,99.90
2017-08-22T04:05:04.593Z,99.90
2017-08-22T04:07:30.712Z,99.90
2017-08-22T04:09:56.849Z,99.90
2017-08-22T04:12:23.000Z,99.90
2017-08-22T04:14:49.160Z,99.90
2017-08-22T04:17:15.285Z,99.90
2017-08-22T04:19:41.424Z,99.90
2017-08-22T04:22:07.594Z,99.90
2017-08-22T04:24:33.787Z,99.90
2017-08-22T04:26:59.906Z,99.90
2017-08-22T04:29:26.059Z,99.90
2017-08-22T04:31:52.210Z,99.90
2017-08-22T04:34:18.333Z,99.90
2017-08-22T04:36:44.495Z,99.90
2017-08-22T04:39:10.640Z,99.90
2017-08-22T04:41:36.761Z,99.90
2017-08-22T04:44:02.904Z,99.90
2017-08-22T04:46:29.180Z,99.90
2017-08-22T04:48:55.304Z,99.90
2017-08-22T04:51:21.445Z,99.90
2017-08-22T04:53:47.561Z,99.90
2017-08-22T04:56:13.671Z,99.90
2017-08-22T04:58:39.824Z,99.90
2017-08-22T05:01:05.954Z,99.90
2017-08-22T05:03:32.084Z,99.90
2017-08-22T05:05:58.221Z,99.80
2017-08-22T05:08:24.332Z,99.70
2017-08-22T05:10:50.493Z,99.70
2017-08-22T05:13:16.600Z,99.70
2017-08-22T05:15:42.705Z,99.90
2017-08-22T05:18:08.852Z,99.90
2017-08-22T05:20:34.969Z,99.50
2017-08-22T05:23:01.084Z,99.70
2017-08-22T05:25:27.211Z,99.70
2017-08-22T05:27:53.309Z,99.30
2017-08-22T05:30:19.452Z,99.50
2017-08-22T05:32:45.593Z,99.10
2017-08-22T05:35:11.764Z,99.10
2017-08-22T05:37:37.891Z,99.10
2017-08-22T05:40:04.019Z,99.10
2017-08-22T05:42:30.149Z,99.10
2017-08-22T05:44:56.499Z,99.10
2017-08-22T05:47:22.611Z,98.80
2017-08-22T05:49:48.725Z,98.90
2017-08-22T05:52:14.861Z,98.80
2017-08-22T05:54:40.976Z,99.00
2017-08-22T05:57:07.098Z,99.00
2017-08-22T05:59:33.345Z,99.00
2017-08-22T06:01:59.579Z,99.10
2017-08-22T06:04:25.697Z,99.30
2017-08-22T06:06:51.929Z,99.10
2017-08-22T06:09:18.045Z,99.10
2017-08-22T06:11:44.165Z,99.10
2017-08-22T06:14:10.300Z,99.20
2017-08-22T06:16:36.415Z,99.00
2017-08-22T06:19:02.524Z,99.10
2017-08-22T06:21:28.895Z,99.00
2017-08-22T06:23:55.004Z,98.80
2017-08-22T06:26:21.123Z,98.60
2017-08-22T06:28:47.281Z,98.40
2017-08-22T06:31:13.400Z,98.50
2017-08-22T06:33:39.516Z,98.60
2017-08-22T06:36:05.660Z,98.70
2017-08-22T06:38:31.780Z,98.50
2017-08-22T06:40:57.916Z,98.30
2017-08-22T06:43:24.054Z,98.60
2017-08-22T06:45:50.164Z,98.60
2017-08-22T06:48:16.303Z,98.60
2017-08-22T06:50:42.425Z,98.00
2017-08-22T06:53:08.523Z,98.00
2017-08-22T06:55:34.673Z,97.30
2017-08-22T06:58:00.773Z,97.40
2017-08-22T07:00:26.889Z,96.90
2017-08-22T07:02:53.041Z,97.50
2017-08-22T07:05:19.151Z,96.20
2017-08-22T07:07:45.256Z,96.20
2017-08-22T07:10:12.111Z,96.70
2017-08-22T07:12:38.225Z,96.40
2017-08-22T07:15:04.353Z,96.00
2017-08-22T07:17:30.704Z,96.10
2017-08-22T07:19:56.800Z,95.50
2017-08-22T07:22:22.907Z,95.90
2017-08-22T07:24:49.053Z,95.60
2017-08-22T07:27:15.148Z,94.80
2017-08-22T07:29:41.251Z,95.30
2017-08-22T07:32:07.368Z,95.00
2017-08-22T07:34:33.476Z,95.40
2017-08-22T07:36:59.915Z,94.90
2017-08-22T07:39:26.037Z,94.30
2017-08-22T07:41:52.165Z,94.40
2017-08-22T07:44:18.286Z,94.40
2017-08-22T07:46:44.406Z,94.40
2017-08-22T07:49:10.546Z,95.20
2017-08-22T07:51:36.668Z,94.40
2017-08-22T07:54:02.787Z,94.30
2017-08-22T07:56:29.323Z,92.60
2017-08-22T07:58:55.456Z,93.10
2017-08-22T08:01:21.581Z,91.80
2017-08-22T08:03:48.224Z,92.30
2017-08-22T08:06:14.355Z,90.60
2017-08-22T08:08:40.505Z,91.90
2017-08-22T08:11:06.667Z,90.20
2017-08-22T08:13:32.806Z,91.20
2017-08-22T08:15:58.959Z,90.90
2017-08-22T08:18:25.555Z,89.70
2017-08-22T08:20:51.679Z,90.60
2017-08-22T08:23:17.797Z,91.60
2017-08-22T08:25:43.958Z,90.30
2017-08-22T08:28:10.060Z,89.30
2017-08-22T08:30:36.179Z,90.60
2017-08-22T08:33:02.331Z,89.10
2017-08-22T08:35:28.455Z,87.60
2017-08-22T08:37:54.575Z,88.80
2017-08-22T08:40:20.932Z,86.50
2017-08-22T08:42:47.043Z,85.70
2017-08-22T08:45:13.156Z,86.60
2017-08-22T08:47:39.303Z,84.00
2017-08-22T08:50:05.424Z,80.60
2017-08-22T08:52:31.571Z,81.90
2017-08-22T08:54:57.701Z,85.00
2017-08-22T08:57:23.829Z,84.30
2017-08-22T08:59:49.956Z,84.00
2017-08-22T09:02:16.083Z,83.60
2017-08-22T09:04:42.637Z,81.20
2017-08-22T09:07:08.769Z,83.40
2017-08-22T09:09:34.880Z,83.20
2017-08-22T09:12:00.996Z,80.60
2017-08-22T09:14:27.393Z,78.00
2017-08-22T09:16:53.513Z,80.50
2017-08-22T09:19:19.626Z,79.80
2017-08-22T09:21:45.762Z,77.80
2017-08-22T09:24:11.879Z,71.60
2017-08-22T09:26:37.992Z,76.50
2017-08-22T09:29:04.283Z,79.40
2017-08-22T09:31:30.400Z,75.50
2017-08-22T09:33:56.517Z,78.60
2017-08-22T09:36:22.646Z,77.20
2017-08-22T09:38:48.788Z,75.80
2017-08-22T09:41:14.900Z,69.60
2017-08-22T09:43:41.139Z,71.30
2017-08-22T09:46:07.244Z,70.40
2017-08-22T09:48:33.360Z,71.90
2017-08-22T09:50:59.793Z,69.60
2017-08-22T09:53:25.906Z,72.30
2017-08-22T09:55:52.025Z,71.00
2017-08-22T09:58:18.468Z,73.90
2017-08-22T10:00:44.573Z,71.10
2017-08-22T10:03:10.711Z,70.20
2017-08-22T10:05:36.865Z,69.80
2017-08-22T10:08:02.977Z,69.00
2017-08-22T10:10:29.087Z,69.60
2017-08-22T10:12:55.228Z,68.20
2017-08-22T10:15:21.374Z,67.60
2017-08-22T10:17:47.505Z,66.60
2017-08-22T10:20:13.662Z,68.50
2017-08-22T10:22:39.784Z,66.60
2017-08-22T10:25:05.907Z,68.50
2017-08-22T10:27:32.073Z,67.00
2017-08-22T10:29:58.191Z,65.50
2017-08-22T10:32:24.304Z,66.30
2017-08-22T10:34:50.450Z,65.90
2017-08-22T10:37:16.568Z,68.80
2017-08-22T10:39:42.697Z,67.90
2017-08-22T10:42:08.852Z,69.30
2017-08-22T10:44:34.983Z,71.30
2017-08-22T10:47:01.101Z,68.30
2017-08-22T10:49:27.513Z,71.10
2017-08-22T10:51:53.619Z,67.30
2017-08-22T10:54:19.729Z,67.30
2017-08-22T10:56:45.892Z,64.40
2017-08-22T10:59:12.025Z,70.80
2017-08-22T11:01:38.138Z,66.00
2017-08-22T11:04:04.296Z,66.30
2017-08-22T11:06:30.415Z,64.90
2017-08-22T11:08:56.560Z,66.70
2017-08-22T11:11:23.055Z,67.30
2017-08-22T11:13:49.168Z,65.70
2017-08-22T11:16:15.325Z,63.40
2017-08-22T11:18:41.459Z,64.60
2017-08-22T11:21:07.593Z,64.80
2017-08-22T11:23:33.722Z,65.10
2017-08-22T11:26:00.623Z,66.40
2017-08-22T11:28:26.743Z,66.00
2017-08-22T11:30:52.863Z,67.00
2017-08-22T11:33:19.927Z,67.60
2017-08-22T11:35:46.116Z,65.40
2017-08-22T11:38:12.252Z,65.00
2017-08-22T11:40:38.710Z,64.00
2017-08-22T11:43:04.820Z,63.60
2017-08-22T11:45:30.957Z,62.00
2017-08-22T11:47:57.394Z,62.00
2017-08-22T11:50:23.513Z,61.90
2017-08-22T11:52:49.659Z,60.80
2017-08-22T11:55:15.992Z,62.20
2017-08-22T11:57:42.106Z,60.70
2017-08-22T12:00:08.261Z,60.30
2017-08-22T12:02:34.396Z,59.10
2017-08-22T12:05:00.545Z,56.80
2017-08-22T12:07:26.738Z,58.90
2017-08-22T12:09:52.887Z,59.30
2017-08-22T12:12:19.024Z,60.80
2017-08-22T12:14:45.155Z,60.50
2017-08-22T12:17:11.323Z,60.80
2017-08-22T12:19:37.501Z,61.80
2017-08-22T12:22:03.664Z,55.40
2017-08-22T12:24:29.856Z,53.30
2017-08-22T12:26:55.985Z,52.60
2017-08-22T12:29:22.160Z,55.30
2017-08-22T12:31:48.686Z,55.30
2017-08-22T12:34:14.803Z,58.40
2017-08-22T12:36:40.921Z,60.30
2017-08-22T12:39:07.265Z,59.40
2017-08-22T12:41:33.425Z,60.10
2017-08-22T12:43:59.549Z,63.20
2017-08-22T12:46:25.713Z,62.20
2017-08-22T12:48:51.827Z,57.10
2017-08-22T12:51:18.004Z,53.90
2017-08-22T12:53:44.137Z,51.50
2017-08-22T12:56:10.248Z,48.70
2017-08-22T12:58:36.400Z,48.10
2017-08-22T13:01:02.532Z,47.30
2017-08-22T13:03:28.668Z,47.10
2017-08-22T13:05:55.054Z,48.40
2017-08-22T13:08:21.168Z,47.20
2017-08-22T13:10:47.278Z,44.90
2017-08-22T13:13:13.455Z,43.50
2017-08-22T13:15:39.552Z,44.10
2017-08-22T13:18:05.652Z,40.80
2017-08-22T13:20:31.947Z,41.90
2017-08-22T13:22:58.084Z,41.80
2017-08-22T13:25:24.208Z,41.20
2017-08-22T13:27:50.346Z,39.50
2017-08-22T13:30:16.471Z,41.70
2017-08-22T13:32:42.635Z,43.00
2017-08-22T13:35:08.793Z,48.00
2017-08-22T13:37:34.907Z,50.30
2017-08-22T13:40:01.051Z,52.20
2017-08-22T13:42:27.551Z,52.00
2017-08-22T13:44:53.684Z,53.10
2017-08-22T13:47:19.838Z,55.40
2017-08-22T13:49:45.992Z,56.70
2017-08-22T13:52:12.104Z,51.20
2017-08-22T13:54:38.203Z,46.70
2017-08-22T13:57:04.331Z,43.60
2017-08-22T13:59:30.541Z,43.20
2017-08-22T14:01:56.709Z,40.80
2017-08-22T14:04:22.826Z,44.60
2017-08-22T14:06:48.932Z,49.10
2017-08-22T14:09:15.065Z,48.90
2017-08-22T14:11:41.209Z,43.40
2017-08-22T14:14:07.359Z,41.80
2017-08-22T14:16:33.469Z,42.70
2017-08-22T14:18:59.575Z,40.40
2017-08-22T14:21:25.806Z,38.90
2017-08-22T14:23:51.916Z,39.50
2017-08-22T14:26:18.034Z,39.80
2017-08-22T14:28:44.207Z,41.40
2017-08-22T14:31:10.324Z,43.10
2017-08-22T14:33:36.508Z,45.90
2017-08-22T14:36:02.672Z,48.50
2017-08-22T14:38:28.786Z,47.60
2017-08-22T14:40:54.898Z,46.40
2017-08-22T14:43:21.122Z,46.00
2017-08-22T14:45:47.236Z,48.10
2017-08-22T14:48:13.353Z,48.70
2017-08-22T14:50:39.679Z,50.90
2017-08-22T14:53:05.780Z,51.80
2017-08-22T14:55:31.892Z,53.80
2017-08-22T14:57:58.068Z,55.20
2017-08-22T15:00:24.180Z,53.00
2017-08-22T15:02:50.285Z,52.70
2017-08-22T15:05:16.408Z,51.90
2017-08-22T15:07:42.539Z,53.60
2017-08-22T15:10:08.679Z,55.70
2017-08-22T15:12:34.787Z,55.60
2017-08-22T15:15:00.896Z,55.60
2017-08-22T15:17:27.052Z,55.10
2017-08-22T15:19:53.161Z,56.90
2017-08-22T15:22:19.261Z,57.00
2017-08-22T15:24:45.644Z,56.80
2017-08-22T15:27:11.757Z,54.20
2017-08-22T15:29:37.886Z,55.80
2017-08-22T15:32:04.033Z,55.90
2017-08-22T15:34:30.132Z,57.30
2017-08-22T15:36:56.259Z,55.30
2017-08-22T15:39:22.397Z,55.90
2017-08-22T15:41:48.518Z,56.70
2017-08-22T15:44:14.624Z,57.60
2017-08-22T15:46:40.788Z,57.80
2017-08-22T15:49:07.179Z,58.10
2017-08-22T15:51:33.287Z,59.40
2017-08-22T15:53:59.660Z,59.60
2017-08-22T15:56:25.766Z,60.60
2017-08-22T15:58:51.893Z,60.00
2017-08-22T16:01:18.034Z,58.50
2017-08-22T16:03:44.176Z,56.80
2017-08-22T16:06:10.319Z,57.50
2017-08-22T16:08:36.424Z,57.80
2017-08-22T16:11:02.552Z,59.20
2017-08-22T16:13:28.872Z,58.50
2017-08-22T16:15:54.982Z,59.20
2017-08-22T16:18:21.208Z,61.50
2017-08-22T16:20:47.351Z,58.40
2017-08-22T16:23:13.469Z,58.00
2017-08-22T16:25:39.605Z,58.70
2017-08-22T16:28:05.751Z,59.20
2017-08-22T16:30:31.860Z,58.80
2017-08-22T16:32:57.960Z,59.60
2017-08-22T16:35:24.089Z,59.10
2017-08-22T16:37:50.207Z,60.30
2017-08-22T16:40:16.310Z,60.90
2017-08-22T16:42:42.453Z,57.70
2017-08-22T16:45:08.598Z,58.70
2017-08-22T16:47:34.971Z,59.10
2017-08-22T16:50:01.142Z,59.90
2017-08-22T16:52:27.263Z,60.60
2017-08-22T16:54:53.387Z,62.00
2017-08-22T16:57:19.847Z,62.90
2017-08-22T16:59:45.996Z,63.70
2017-08-22T17:02:12.124Z,64.70
2017-08-22T17:04:38.279Z,65.50
2017-08-22T17:07:04.388Z,62.20
2017-08-22T17:09:30.533Z,63.60
2017-08-22T17:11:56.978Z,62.70
2017-08-22T17:14:23.097Z,62.00
2017-08-22T17:16:49.233Z,63.30
2017-08-22T17:19:15.376Z,62.90
2017-08-22T17:21:41.505Z,63.20
2017-08-22T17:24:07.627Z,63.60
2017-08-22T17:26:34.083Z,65.70
2017-08-22T17:29:00.195Z,66.40
2017-08-22T17:31:26.323Z,66.80
2017-08-22T17:33:52.459Z,67.40
2017-08-22T17:36:18.574Z,68.20
2017-08-22T17:38:44.702Z,69.60
2017-08-22T17:41:11.103Z,70.40
2017-08-22T17:43:37.201Z,71.50
2017-08-22T17:46:03.321Z,72.40
2017-08-22T17:48:29.487Z,72.70
2017-08-22T17:50:55.608Z,73.80
2017-08-22T17:53:21.721Z,74.70
2017-08-22T17:55:47.873Z,74.70
2017-08-22T17:58:13.999Z,76.10
2017-08-22T18:00:40.139Z,76.30
2017-08-22T18:03:07.096Z,77.10
2017-08-22T18:05:33.205Z,78.20
2017-08-22T18:07:59.321Z,78.20
2017-08-22T18:10:25.771Z,78.60
2017-08-22T18:12:51.891Z,79.20
2017-08-22T18:15:18.028Z,79.70
2017-08-22T18:17:44.163Z,80.00
2017-08-22T18:20:10.284Z,79.60
2017-08-22T18:22:36.416Z,80.30
2017-08-22T18:25:02.561Z,80.70
2017-08-22T18:27:28.680Z,81.60
2017-08-22T18:29:54.792Z,81.60
2017-08-22T18:32:21.225Z,81.90
2017-08-22T18:34:47.341Z,82.50
2017-08-22T18:37:13.477Z,82.60
2017-08-22T18:39:39.631Z,83.10
2017-08-22T18:42:05.760Z,83.50
2017-08-22T18:44:31.913Z,84.60
2017-08-22T18:46:58.493Z,84.80
2017-08-22T18:49:24.617Z,86.00
2017-08-22T18:51:50.773Z,85.60
2017-08-22T18:54:16.943Z,85.70
2017-08-22T18:56:43.087Z,86.50
2017-08-22T18:59:09.222Z,86.30
2017-08-22T19:01:35.408Z,85.80
2017-08-22T19:04:01.555Z,86.60
2017-08-22T19:06:27.700Z,87.20
2017-08-22T19:08:53.849Z,87.30
2017-08-22T19:11:19.978Z,87.80
2017-08-22T19:13:46.104Z,87.40
2017-08-22T19:16:12.252Z,88.00
2017-08-22T19:18:38.409Z,88.10
2017-08-22T19:21:04.737Z,89.70
2017-08-22T19:23:30.880Z,90.00
2017-08-22T19:25:57.012Z,89.00
2017-08-22T19:28:23.303Z,88.90
2017-08-22T19:30:49.446Z,89.60
2017-08-22T19:33:15.569Z,89.80
2017-08-22T19:35:41.709Z,90.10
2017-08-22T19:38:07.828Z,90.20
2017-08-22T19:40:33.948Z,90.30
2017-08-22T19:43:00.282Z,91.10
2017-08-22T19:45:26.412Z,90.80
2017-08-22T19:47:52.532Z,90.80
2017-08-22T19:50:18.700Z,90.80
2017-08-22T19:52:44.817Z,91.10
2017-08-22T19:55:10.940Z,91.80
2017-08-22T19:57:37.065Z,91.20
2017-08-22T20:00:03.191Z,91.20
2017-08-22T20:02:29.375Z,91.50
2017-08-22T20:04:55.509Z,91.80
2017-08-22T20:07:21.632Z,91.60
2017-08-22T20:09:47.776Z,91.70
2017-08-22T20:12:13.909Z,92.10
2017-08-22T20:14:40.012Z,91.70
2017-08-22T20:17:06.147Z,92.10
2017-08-22T20:19:32.279Z,92.30
2017-08-22T20:21:58.680Z,92.40
2017-08-22T20:24:25.377Z,92.60
2017-08-22T20:26:51.588Z,93.00
2017-08-22T20:29:17.880Z,92.80
2017-08-22T20:31:44.033Z,93.10
2017-08-22T20:34:10.157Z,93.10
2017-08-22T20:36:36.277Z,93.50
2017-08-22T20:39:02.589Z,93.70
2017-08-22T20:41:28.714Z,94.00
2017-08-22T20:43:54.829Z,93.90
2017-08-22T20:46:21.193Z,93.90
2017-08-22T20:48:47.332Z,94.20
2017-08-22T20:51:13.465Z,94.20
2017-08-22T20:53:39.613Z,94.50
2017-08-22T20:56:05.745Z,94.60
2017-08-22T20:58:31.880Z,94.70
2017-08-22T21:00:58.013Z,94.80
2017-08-22T21:03:24.200Z,95.00
2017-08-22T21:05:50.316Z,95.50
2017-08-22T21:08:16.441Z,95.00
2017-08-22T21:10:42.738Z,95.00
2017-08-22T21:13:08.861Z,95.10
2017-08-22T21:15:35.029Z,95.70
2017-08-22T21:18:01.184Z,95.70
2017-08-22T21:20:27.293Z,95.80
2017-08-22T21:22:53.430Z,96.00
2017-08-22T21:25:19.676Z,96.10
2017-08-22T21:27:45.817Z,96.30
2017-08-22T21:30:11.958Z,95.70
2017-08-22T21:32:38.273Z,96.80
2017-08-22T21:35:04.433Z,95.40
2017-08-22T21:37:30.557Z,95.60
2017-08-22T21:39:56.954Z,95.30
2017-08-22T21:42:23.087Z,95.30
2017-08-22T21:44:49.202Z,94.90
2017-08-22T21:47:15.453Z,94.90
2017-08-22T21:49:41.572Z,95.00
2017-08-22T21:52:07.713Z,94.60
2017-08-22T21:54:34.232Z,94.80
2017-08-22T21:57:00.354Z,94.90
2017-08-22T21:59:26.513Z,95.20
2017-08-22T22:01:52.664Z,95.40
2017-08-22T22:04:18.801Z,95.80
2017-08-22T22:06:44.932Z,95.50
2017-08-22T22:09:11.064Z,95.70
2017-08-22T22:11:37.185Z,96.00
2017-08-22T22:14:03.314Z,95.80
2017-08-22T22:16:29.481Z,96.00
2017-08-22T22:18:55.600Z,96.10
2017-08-22T22:21:21.720Z,96.20
2017-08-22T22:23:47.876Z,96.00
2017-08-22T22:26:14.060Z,96.30
2017-08-22T22:28:40.200Z,96.60
2017-08-22T22:31:06.623Z,96.60
2017-08-22T22:33:32.740Z,96.60
2017-08-22T22:35:58.863Z,96.80
2017-08-22T22:38:24.992Z,96.70
2017-08-22T22:40:51.138Z,96.70
2017-08-22T22:43:17.267Z,96.60
2017-08-22T22:45:43.403Z,96.40
2017-08-22T22:48:09.541Z,96.50
2017-08-22T22:50:35.684Z,96.60
2017-08-22T22:53:01.961Z,96.70
2017-08-22T22:55:28.078Z,96.70
2017-08-22T22:57:54.201Z,96.90
2017-08-22T23:00:20.335Z,97.10
2017-08-22T23:02:46.489Z,97.10
2017-08-22T23:05:12.659Z,96.80
2017-08-22T23:07:38.806Z,96.90
2017-08-22T23:10:04.960Z,96.80
2017-08-22T23:12:31.191Z,96.80
2017-08-22T23:14:57.312Z,96.60
2017-08-22T23:17:23.442Z,96.80
2017-08-22T23:19:49.581Z,97.20
2017-08-22T23:22:15.693Z,97.10
2017-08-22T23:24:41.823Z,97.40
2017-08-22T23:27:08.186Z,96.90
2017-08-22T23:29:34.316Z,97.20
2017-08-22T23:32:00.460Z,97.00
2017-08-22T23:34:26.585Z,97.00
2017-08-22T23:36:52.722Z,97.30
2017-08-22T23:39:18.888Z,97.40
2017-08-22T23:41:45.020Z,97.60
2017-08-22T23:44:11.146Z,97.80
2017-08-22T23:46:37.296Z,98.00
2017-08-22T23:49:03.416Z,97.80
2017-08-22T23:51:29.540Z,97.60
2017-08-22T23:53:56.033Z,97.70
2017-08-22T23:56:22.160Z,97.70
2017-08-22T23:58:48.293Z,97.70
